Tilton, Illinois
Current Conditions -  °F | °C
As of 5:15 PM on Sunday 21 Dec 2014 (Local Time) from KDNV Reporting Station
Clear Clear  
Wind Chill: 28°   Ceiling: Unl
Heat Index: 33°   Visibility: 10mi
Dew Point: 29°   Wind: 6mph
Humidity: 85%   Direction: 130°SE
Pressure: 30.07"   Gusts: NA
Location:  40.1°N, 87.65°W
Report Text: KDNV 212315Z AUTO 13005KT 10SM CLR 01/M02 A3007 RMK AO2 T00061016
Loading
Personal Weather Stations






























Interactive Weather Map New forecast layout! Learn more

10-Day Weather Forecast

Advertisements
Track Severe Weather on mobile